sensor_id;sensor_type;location;lat;lon;timestamp;P1;durP1;ratioP1;P2;durP2;ratioP2
45842;SDS011;31563;51.744;8.252;2023-03-01T00:00:18;2.63;;;2.17;;
45842;SDS011;31563;51.744;8.252;2023-03-01T00:02:46;2.53;;;2.20;;
45842;SDS011;31563;51.744;8.252;2023-03-01T00:05:14;2.83;;;2.20;;
45842;SDS011;31563;51.744;8.252;2023-03-01T00:07:42;2.65;;;2.15;;
45842;SDS011;31563;51.744;8.252;2023-03-01T00:10:11;2.22;;;2.03;;
45842;SDS011;31563;51.744;8.252;2023-03-01T00:12:40;2.45;;;2.25;;
45842;SDS011;31563;51.744;8.252;2023-03-01T00:15:08;2.70;;;2.13;;
45842;SDS011;31563;51.744;8.252;2023-03-01T00:17:37;2.37;;;2.17;;
45842;SDS011;31563;51.744;8.252;2023-03-01T00:20:06;2.80;;;2.35;;
45842;SDS011;31563;51.744;8.252;2023-03-01T00:22:36;2.78;;;2.10;;
45842;SDS011;31563;51.744;8.252;2023-03-01T00:25:04;2.67;;;2.40;;
45842;SDS011;31563;51.744;8.252;2023-03-01T00:27:33;2.50;;;2.20;;
45842;SDS011;31563;51.744;8.252;2023-03-01T00:30:02;2.30;;;2.10;;
45842;SDS011;31563;51.744;8.252;2023-03-01T00:32:31;2.40;;;1.90;;
45842;SDS011;31563;51.744;8.252;2023-03-01T00:34:59;3.08;;;2.35;;
45842;SDS011;31563;51.744;8.252;2023-03-01T00:37:27;2.75;;;2.38;;
45842;SDS011;31563;51.744;8.252;2023-03-01T00:39:55;2.30;;;2.10;;
45842;SDS011;31563;51.744;8.252;2023-03-01T00:42:23;3.47;;;2.25;;
45842;SDS011;31563;51.744;8.252;2023-03-01T00:44:51;2.70;;;2.15;;
45842;SDS011;31563;51.744;8.252;2023-03-01T00:47:30;2.72;;;2.28;;
45842;SDS011;31563;51.744;8.252;2023-03-01T00:49:58;2.72;;;2.15;;
45842;SDS011;31563;51.744;8.252;2023-03-01T00:52:26;2.38;;;2.17;;
45842;SDS011;31563;51.744;8.252;2023-03-01T00:54:54;2.50;;;2.10;;
45842;SDS011;31563;51.744;8.252;2023-03-01T00:57:24;2.20;;;2.00;;
45842;SDS011;31563;51.744;8.252;2023-03-01T00:59:52;2.30;;;2.10;;
45842;SDS011;31563;51.744;8.252;2023-03-01T01:02:21;2.58;;;2.33;;
45842;SDS011;31563;51.744;8.252;2023-03-01T01:04:50;2.53;;;1.83;;
45842;SDS011;31563;51.744;8.252;2023-03-01T01:07:18;2.40;;;1.90;;
45842;SDS011;31563;51.744;8.252;2023-03-01T01:09:47;2.38;;;2.00;;
45842;SDS011;31563;51.744;8.252;2023-03-01T01:12:15;2.95;;;2.20;;
45842;SDS011;31563;51.744;8.252;2023-03-01T01:14:43;2.63;;;2.17;;
45842;SDS011;31563;51.744;8.252;2023-03-01T01:17:12;2.33;;;2.10;;
45842;SDS011;31563;51.744;8.252;2023-03-01T01:19:41;2.30;;;2.10;;
45842;SDS011;31563;51.744;8.252;2023-03-01T01:22:10;2.40;;;2.20;;
45842;SDS011;31563;51.744;8.252;2023-03-01T01:24:38;2.22;;;2.00;;
45842;SDS011;31563;51.744;8.252;2023-03-01T01:27:06;1.95;;;1.70;;
45842;SDS011;31563;51.744;8.252;2023-03-01T01:29:34;3.05;;;2.20;;
45842;SDS011;31563;51.744;8.252;2023-03-01T01:32:03;3.45;;;2.50;;
45842;SDS011;31563;51.744;8.252;2023-03-01T01:34:31;3.05;;;2.30;;
45842;SDS011;31563;51.744;8.252;2023-03-01T01:37:00;2.65;;;2.35;;
45842;SDS011;31563;51.744;8.252;2023-03-01T01:39:29;3.05;;;2.38;;
45842;SDS011;31563;51.744;8.252;2023-03-01T01:41:57;2.70;;;2.30;;
45842;SDS011;31563;51.744;8.252;2023-03-01T01:44:26;2.92;;;2.15;;
45842;SDS011;31563;51.744;8.252;2023-03-01T01:46:55;2.53;;;1.98;;
45842;SDS011;31563;51.744;8.252;2023-03-01T01:49:27;2.47;;;2.28;;
45842;SDS011;31563;51.744;8.252;2023-03-01T01:52:03;2.58;;;2.38;;
45842;SDS011;31563;51.744;8.252;2023-03-01T01:54:40;2.85;;;2.45;;
45842;SDS011;31563;51.744;8.252;2023-03-01T01:57:12;2.47;;;2.00;;
45842;SDS011;31563;51.744;8.252;2023-03-01T01:59:45;2.15;;;1.83;;
45842;SDS011;31563;51.744;8.252;2023-03-01T02:02:16;2.00;;;1.77;;
45842;SDS011;31563;51.744;8.252;2023-03-01T02:04:46;2.15;;;1.92;;
45842;SDS011;31563;51.744;8.252;2023-03-01T02:07:17;3.03;;;2.13;;
45842;SDS011;31563;51.744;8.252;2023-03-01T02:09:48;2.85;;;2.20;;
45842;SDS011;31563;51.744;8.252;2023-03-01T02:12:19;2.65;;;2.10;;
45842;SDS011;31563;51.744;8.252;2023-03-01T02:14:50;2.67;;;2.20;;
45842;SDS011;31563;51.744;8.252;2023-03-01T02:17:18;3.60;;;2.10;;
45842;SDS011;31563;51.744;8.252;2023-03-01T02:19:51;2.90;;;2.47;;
45842;SDS011;31563;51.744;8.252;2023-03-01T02:22:29;2.25;;;1.90;;
45842;SDS011;31563;51.744;8.252;2023-03-01T02:25:02;2.47;;;2.15;;
45842;SDS011;31563;51.744;8.252;2023-03-01T02:27:43;2.13;;;1.92;;
45842;SDS011;31563;51.744;8.252;2023-03-01T02:30:19;2.92;;;2.63;;
45842;SDS011;31563;51.744;8.252;2023-03-01T02:32:49;2.22;;;2.00;;
45842;SDS011;31563;51.744;8.252;2023-03-01T02:35:17;2.13;;;1.92;;
45842;SDS011;31563;51.744;8.252;2023-03-01T02:37:46;2.42;;;2.22;;
45842;SDS011;31563;51.744;8.252;2023-03-01T02:40:16;2.20;;;2.00;;
45842;SDS011;31563;51.744;8.252;2023-03-01T02:42:49;2.35;;;2.15;;
45842;SDS011;31563;51.744;8.252;2023-03-01T02:45:23;2.45;;;2.10;;
45842;SDS011;31563;51.744;8.252;2023-03-01T02:47:53;3.05;;;2.10;;
45842;SDS011;31563;51.744;8.252;2023-03-01T02:50:24;2.28;;;2.08;;
45842;SDS011;31563;51.744;8.252;2023-03-01T02:53:11;2.40;;;2.10;;
45842;SDS011;31563;51.744;8.252;2023-03-01T02:55:44;2.75;;;2.33;;
45842;SDS011;31563;51.744;8.252;2023-03-01T02:58:12;2.40;;;2.20;;
45842;SDS011;31563;51.744;8.252;2023-03-01T03:00:42;2.40;;;2.00;;
45842;SDS011;31563;51.744;8.252;2023-03-01T03:03:12;2.20;;;2.00;;
45842;SDS011;31563;51.744;8.252;2023-03-01T03:05:41;2.22;;;2.03;;
45842;SDS011;31563;51.744;8.252;2023-03-01T03:08:09;2.38;;;2.17;;
45842;SDS011;31563;51.744;8.252;2023-03-01T03:10:38;2.53;;;2.15;;
45842;SDS011;31563;51.744;8.252;2023-03-01T03:13:09;2.25;;;1.95;;
45842;SDS011;31563;51.744;8.252;2023-03-01T03:15:39;2.72;;;2.45;;
45842;SDS011;31563;51.744;8.252;2023-03-01T03:18:09;2.05;;;1.88;;
45842;SDS011;31563;51.744;8.252;2023-03-01T03:20:40;2.33;;;1.90;;
45842;SDS011;31563;51.744;8.252;2023-03-01T03:23:09;2.22;;;2.03;;
45842;SDS011;31563;51.744;8.252;2023-03-01T03:25:37;2.17;;;1.80;;
45842;SDS011;31563;51.744;8.252;2023-03-01T03:28:06;2.75;;;2.20;;
45842;SDS011;31563;51.744;8.252;2023-03-01T03:30:37;2.22;;;2.00;;
45842;SDS011;31563;51.744;8.252;2023-03-01T03:33:08;2.30;;;1.98;;
45842;SDS011;31563;51.744;8.252;2023-03-01T03:35:40;2.08;;;1.83;;
45842;SDS011;31563;51.744;8.252;2023-03-01T03:38:10;2.45;;;2.10;;
45842;SDS011;31563;51.744;8.252;2023-03-01T03:40:43;2.40;;;2.17;;
45842;SDS011;31563;51.744;8.252;2023-03-01T03:45:43;2.08;;;1.75;;
45842;SDS011;31563;51.744;8.252;2023-03-01T03:50:42;2.05;;;1.85;;
45842;SDS011;31563;51.744;8.252;2023-03-01T03:53:16;2.60;;;2.08;;
45842;SDS011;31563;51.744;8.252;2023-03-01T03:55:44;2.35;;;2.15;;
45842;SDS011;31563;51.744;8.252;2023-03-01T03:58:15;2.40;;;1.90;;
45842;SDS011;31563;51.744;8.252;2023-03-01T04:00:46;2.42;;;2.20;;
45842;SDS011;31563;51.744;8.252;2023-03-01T04:03:17;2.20;;;2.00;;
45842;SDS011;31563;51.744;8.252;2023-03-01T04:05:46;2.63;;;1.77;;
45842;SDS011;31563;51.744;8.252;2023-03-01T04:08:16;2.28;;;2.03;;
45842;SDS011;31563;51.744;8.252;2023-03-01T04:10:46;2.35;;;2.10;;
45842;SDS011;31563;51.744;8.252;2023-03-01T04:13:16;2.53;;;2.33;;
45842;SDS011;31563;51.744;8.252;2023-03-01T04:15:46;2.10;;;1.90;;
45842;SDS011;31563;51.744;8.252;2023-03-01T04:18:17;2.37;;;2.07;;
45842;SDS011;31563;51.744;8.252;2023-03-01T04:20:46;2.00;;;1.63;;
45842;SDS011;31563;51.744;8.252;2023-03-01T04:23:16;2.13;;;1.73;;
45842;SDS011;31563;51.744;8.252;2023-03-01T04:25:47;3.40;;;1.80;;
45842;SDS011;31563;51.744;8.252;2023-03-01T04:28:20;2.47;;;1.95;;
45842;SDS011;31563;51.744;8.252;2023-03-01T04:30:50;2.08;;;1.85;;
45842;SDS011;31563;51.744;8.252;2023-03-01T04:33:20;2.05;;;1.80;;
45842;SDS011;31563;51.744;8.252;2023-03-01T04:35:49;2.00;;;1.80;;
45842;SDS011;31563;51.744;8.252;2023-03-01T04:38:19;2.13;;;1.90;;
45842;SDS011;31563;51.744;8.252;2023-03-01T04:43:16;2.50;;;2.00;;
45842;SDS011;31563;51.744;8.252;2023-03-01T04:45:44;2.50;;;2.30;;
45842;SDS011;31563;51.744;8.252;2023-03-01T04:48:12;2.03;;;1.67;;
45842;SDS011;31563;51.744;8.252;2023-03-01T04:50:42;1.88;;;1.77;;
45842;SDS011;31563;51.744;8.252;2023-03-01T04:53:10;2.70;;;1.58;;
45842;SDS011;31563;51.744;8.252;2023-03-01T04:55:38;2.60;;;2.15;;
45842;SDS011;31563;51.744;8.252;2023-03-01T04:58:06;2.55;;;1.65;;
45842;SDS011;31563;51.744;8.252;2023-03-01T05:00:34;2.15;;;1.80;;
45842;SDS011;31563;51.744;8.252;2023-03-01T05:03:02;1.98;;;1.80;;
45842;SDS011;31563;51.744;8.252;2023-03-01T05:05:31;2.30;;;2.05;;
45842;SDS011;31563;51.744;8.252;2023-03-01T05:08:03;1.70;;;1.60;;
45842;SDS011;31563;51.744;8.252;2023-03-01T05:10:33;1.92;;;1.70;;
45842;SDS011;31563;51.744;8.252;2023-03-01T05:13:04;1.95;;;1.63;;
45842;SDS011;31563;51.744;8.252;2023-03-01T05:15:33;1.98;;;1.60;;
45842;SDS011;31563;51.744;8.252;2023-03-01T05:18:03;1.80;;;1.60;;
45842;SDS011;31563;51.744;8.252;2023-03-01T05:20:33;2.15;;;1.95;;
45842;SDS011;31563;51.744;8.252;2023-03-01T05:23:04;2.42;;;2.00;;
45842;SDS011;31563;51.744;8.252;2023-03-01T05:25:33;2.00;;;1.77;;
45842;SDS011;31563;51.744;8.252;2023-03-01T05:28:06;1.67;;;1.52;;
45842;SDS011;31563;51.744;8.252;2023-03-01T05:30:37;2.20;;;1.70;;
45842;SDS011;31563;51.744;8.252;2023-03-01T05:33:06;1.90;;;1.70;;
45842;SDS011;31563;51.744;8.252;2023-03-01T05:35:39;3.05;;;2.10;;
45842;SDS011;31563;51.744;8.252;2023-03-01T05:38:10;1.70;;;1.60;;
45842;SDS011;31563;51.744;8.252;2023-03-01T05:40:40;2.03;;;1.65;;
45842;SDS011;31563;51.744;8.252;2023-03-01T05:43:08;2.00;;;1.80;;
45842;SDS011;31563;51.744;8.252;2023-03-01T05:45:37;1.98;;;1.77;;
45842;SDS011;31563;51.744;8.252;2023-03-01T05:48:06;2.40;;;1.95;;
45842;SDS011;31563;51.744;8.252;2023-03-01T05:50:36;1.90;;;1.60;;
45842;SDS011;31563;51.744;8.252;2023-03-01T05:53:06;6.28;;;5.05;;
45842;SDS011;31563;51.744;8.252;2023-03-01T05:55:37;6.43;;;5.70;;
45842;SDS011;31563;51.744;8.252;2023-03-01T06:00:35;8.52;;;6.20;;
45842;SDS011;31563;51.744;8.252;2023-03-01T06:03:03;6.90;;;6.20;;
45842;SDS011;31563;51.744;8.252;2023-03-01T06:05:31;7.05;;;5.50;;
45842;SDS011;31563;51.744;8.252;2023-03-01T06:07:59;7.60;;;5.35;;
45842;SDS011;31563;51.744;8.252;2023-03-01T06:10:28;5.85;;;4.75;;
45842;SDS011;31563;51.744;8.252;2023-03-01T06:12:58;6.78;;;4.57;;
45842;SDS011;31563;51.744;8.252;2023-03-01T06:15:26;5.43;;;4.93;;
45842;SDS011;31563;51.744;8.252;2023-03-01T06:17:55;4.95;;;4.45;;
45842;SDS011;31563;51.744;8.252;2023-03-01T06:20:26;4.10;;;3.47;;
45842;SDS011;31563;51.744;8.252;2023-03-01T06:25:24;4.25;;;3.80;;
45842;SDS011;31563;51.744;8.252;2023-03-01T06:27:54;5.93;;;4.05;;
45842;SDS011;31563;51.744;8.252;2023-03-01T06:30:24;4.90;;;3.58;;
45842;SDS011;31563;51.744;8.252;2023-03-01T06:32:53;5.45;;;3.30;;
45842;SDS011;31563;51.744;8.252;2023-03-01T06:35:27;4.13;;;3.17;;
45842;SDS011;31563;51.744;8.252;2023-03-01T06:37:57;4.70;;;2.97;;
45842;SDS011;31563;51.744;8.252;2023-03-01T06:40:27;5.57;;;3.63;;
45842;SDS011;31563;51.744;8.252;2023-03-01T06:45:27;3.75;;;3.03;;
45842;SDS011;31563;51.744;8.252;2023-03-01T06:48:00;3.38;;;2.80;;
45842;SDS011;31563;51.744;8.252;2023-03-01T06:50:30;3.45;;;2.80;;
45842;SDS011;31563;51.744;8.252;2023-03-01T06:52:59;5.90;;;3.15;;
45842;SDS011;31563;51.744;8.252;2023-03-01T06:55:28;2.97;;;2.58;;
45842;SDS011;31563;51.744;8.252;2023-03-01T06:57:56;4.82;;;2.80;;
45842;SDS011;31563;51.744;8.252;2023-03-01T07:00:24;3.10;;;2.28;;
45842;SDS011;31563;51.744;8.252;2023-03-01T07:02:57;7.07;;;3.10;;
45842;SDS011;31563;51.744;8.252;2023-03-01T07:05:28;3.33;;;2.67;;
45842;SDS011;31563;51.744;8.252;2023-03-01T07:07:56;3.42;;;2.88;;
45842;SDS011;31563;51.744;8.252;2023-03-01T07:10:25;4.13;;;2.60;;
45842;SDS011;31563;51.744;8.252;2023-03-01T07:12:54;3.08;;;2.72;;
45842;SDS011;31563;51.744;8.252;2023-03-01T07:15:22;2.78;;;2.47;;
45842;SDS011;31563;51.744;8.252;2023-03-01T07:17:52;2.83;;;2.42;;
45842;SDS011;31563;51.744;8.252;2023-03-01T07:20:20;3.28;;;2.83;;
45842;SDS011;31563;51.744;8.252;2023-03-01T07:25:18;4.10;;;2.55;;
45842;SDS011;31563;51.744;8.252;2023-03-01T07:27:48;3.58;;;2.47;;
45842;SDS011;31563;51.744;8.252;2023-03-01T07:30:17;3.28;;;2.33;;
45842;SDS011;31563;51.744;8.252;2023-03-01T07:32:45;3.10;;;2.35;;
45842;SDS011;31563;51.744;8.252;2023-03-01T07:35:15;3.80;;;2.60;;
45842;SDS011;31563;51.744;8.252;2023-03-01T07:37:43;2.75;;;2.17;;
45842;SDS011;31563;51.744;8.252;2023-03-01T07:40:12;3.00;;;2.47;;
45842;SDS011;31563;51.744;8.252;2023-03-01T07:42:40;3.17;;;2.30;;
45842;SDS011;31563;51.744;8.252;2023-03-01T07:45:09;2.75;;;2.08;;
45842;SDS011;31563;51.744;8.252;2023-03-01T07:47:39;3.38;;;2.15;;
45842;SDS011;31563;51.744;8.252;2023-03-01T07:50:08;4.43;;;2.58;;
45842;SDS011;31563;51.744;8.252;2023-03-01T07:52:38;2.15;;;1.95;;
45842;SDS011;31563;51.744;8.252;2023-03-01T07:55:07;8.65;;;5.20;;
45842;SDS011;31563;51.744;8.252;2023-03-01T07:57:35;7.20;;;6.50;;
45842;SDS011;31563;51.744;8.252;2023-03-01T08:00:04;6.80;;;5.55;;
45842;SDS011;31563;51.744;8.252;2023-03-01T08:02:33;8.30;;;6.05;;
45842;SDS011;31563;51.744;8.252;2023-03-01T08:05:01;9.60;;;5.13;;
45842;SDS011;31563;51.744;8.252;2023-03-01T08:07:29;9.57;;;5.90;;
45842;SDS011;31563;51.744;8.252;2023-03-01T08:09:59;9.27;;;6.32;;
45842;SDS011;31563;51.744;8.252;2023-03-01T08:12:27;8.68;;;7.47;;
45842;SDS011;31563;51.744;8.252;2023-03-01T08:14:55;9.27;;;6.57;;
45842;SDS011;31563;51.744;8.252;2023-03-01T08:17:24;8.80;;;6.18;;
45842;SDS011;31563;51.744;8.252;2023-03-01T08:19:52;7.03;;;5.00;;
45842;SDS011;31563;51.744;8.252;2023-03-01T08:22:20;6.55;;;4.32;;
45842;SDS011;31563;51.744;8.252;2023-03-01T08:24:48;6.50;;;4.53;;
45842;SDS011;31563;51.744;8.252;2023-03-01T08:27:18;8.55;;;4.88;;
45842;SDS011;31563;51.744;8.252;2023-03-01T08:29:46;6.10;;;4.30;;
45842;SDS011;31563;51.744;8.252;2023-03-01T08:32:14;6.85;;;3.75;;
45842;SDS011;31563;51.744;8.252;2023-03-01T08:34:42;6.85;;;4.13;;
45842;SDS011;31563;51.744;8.252;2023-03-01T08:37:13;6.07;;;3.67;;
45842;SDS011;31563;51.744;8.252;2023-03-01T08:39:41;4.50;;;3.17;;
45842;SDS011;31563;51.744;8.252;2023-03-01T08:42:10;5.07;;;3.15;;
45842;SDS011;31563;51.744;8.252;2023-03-01T08:44:39;4.20;;;3.30;;
45842;SDS011;31563;51.744;8.252;2023-03-01T08:47:07;3.80;;;3.03;;
45842;SDS011;31563;51.744;8.252;2023-03-01T08:49:35;4.13;;;3.17;;
45842;SDS011;31563;51.744;8.252;2023-03-01T08:52:03;4.53;;;3.13;;
45842;SDS011;31563;51.744;8.252;2023-03-01T08:54:31;5.25;;;2.97;;
45842;SDS011;31563;51.744;8.252;2023-03-01T08:57:01;3.85;;;2.92;;
45842;SDS011;31563;51.744;8.252;2023-03-01T08:59:29;4.88;;;3.08;;
45842;SDS011;31563;51.744;8.252;2023-03-01T09:02:03;4.45;;;2.78;;
45842;SDS011;31563;51.744;8.252;2023-03-01T09:04:31;3.05;;;2.53;;
45842;SDS011;31563;51.744;8.252;2023-03-01T09:07:00;3.40;;;2.53;;
45842;SDS011;31563;51.744;8.252;2023-03-01T09:09:28;3.25;;;2.63;;
45842;SDS011;31563;51.744;8.252;2023-03-01T09:11:56;3.65;;;2.67;;
45842;SDS011;31563;51.744;8.252;2023-03-01T09:14:24;3.47;;;2.70;;
45842;SDS011;31563;51.744;8.252;2023-03-01T09:16:52;3.17;;;2.45;;
45842;SDS011;31563;51.744;8.252;2023-03-01T09:19:22;3.40;;;2.65;;
45842;SDS011;31563;51.744;8.252;2023-03-01T09:21:52;2.45;;;2.15;;
45842;SDS011;31563;51.744;8.252;2023-03-01T09:24:22;3.42;;;2.53;;
45842;SDS011;31563;51.744;8.252;2023-03-01T09:26:54;5.65;;;2.58;;
45842;SDS011;31563;51.744;8.252;2023-03-01T09:29:23;3.15;;;2.22;;
45842;SDS011;31563;51.744;8.252;2023-03-01T09:31:52;3.38;;;2.25;;
45842;SDS011;31563;51.744;8.252;2023-03-01T09:36:51;3.90;;;2.10;;
45842;SDS011;31563;51.744;8.252;2023-03-01T09:39:19;3.85;;;2.28;;
45842;SDS011;31563;51.744;8.252;2023-03-01T09:41:49;3.13;;;2.13;;
45842;SDS011;31563;51.744;8.252;2023-03-01T09:44:27;2.53;;;2.00;;
45842;SDS011;31563;51.744;8.252;2023-03-01T09:47:01;2.45;;;2.00;;
45842;SDS011;31563;51.744;8.252;2023-03-01T09:49:32;2.50;;;2.00;;
45842;SDS011;31563;51.744;8.252;2023-03-01T09:52:03;2.13;;;1.70;;
45842;SDS011;31563;51.744;8.252;2023-03-01T09:54:40;2.03;;;1.83;;
45842;SDS011;31563;51.744;8.252;2023-03-01T09:57:15;2.63;;;2.08;;
45842;SDS011;31563;51.744;8.252;2023-03-01T09:59:51;2.45;;;1.92;;
45842;SDS011;31563;51.744;8.252;2023-03-01T10:02:32;3.25;;;2.30;;
45842;SDS011;31563;51.744;8.252;2023-03-01T10:05:12;2.17;;;1.60;;
45842;SDS011;31563;51.744;8.252;2023-03-01T10:07:52;1.92;;;1.70;;
45842;SDS011;31563;51.744;8.252;2023-03-01T10:10:29;2.45;;;1.10;;
45842;SDS011;31563;51.744;8.252;2023-03-01T10:13:03;2.05;;;1.30;;
45842;SDS011;31563;51.744;8.252;2023-03-01T10:15:38;3.85;;;1.45;;
45842;SDS011;31563;51.744;8.252;2023-03-01T10:18:12;2.42;;;1.33;;
45842;SDS011;31563;51.744;8.252;2023-03-01T10:20:46;2.05;;;1.38;;
45842;SDS011;31563;51.744;8.252;2023-03-01T10:23:19;1.77;;;1.15;;
45842;SDS011;31563;51.744;8.252;2023-03-01T10:25:49;3.35;;;1.10;;
45842;SDS011;31563;51.744;8.252;2023-03-01T10:28:35;1.60;;;1.10;;
45842;SDS011;31563;51.744;8.252;2023-03-01T10:31:11;2.60;;;1.70;;
45842;SDS011;31563;51.744;8.252;2023-03-01T10:33:42;3.35;;;1.27;;
45842;SDS011;31563;51.744;8.252;2023-03-01T10:36:11;2.88;;;1.48;;
45842;SDS011;31563;51.744;8.252;2023-03-01T10:38:49;3.13;;;1.70;;
45842;SDS011;31563;51.744;8.252;2023-03-01T10:41:20;4.47;;;1.55;;
45842;SDS011;31563;51.744;8.252;2023-03-01T10:43:52;2.67;;;1.38;;
45842;SDS011;31563;51.744;8.252;2023-03-01T10:46:25;2.25;;;1.23;;
45842;SDS011;31563;51.744;8.252;2023-03-01T10:49:12;3.13;;;1.38;;
45842;SDS011;31563;51.744;8.252;2023-03-01T10:51:44;5.30;;;1.63;;
45842;SDS011;31563;51.744;8.252;2023-03-01T10:54:18;1.52;;;0.98;;
45842;SDS011;31563;51.744;8.252;2023-03-01T10:56:48;4.68;;;3.15;;
45842;SDS011;31563;51.744;8.252;2023-03-01T10:59:22;4.75;;;2.40;;
45842;SDS011;31563;51.744;8.252;2023-03-01T11:02:08;4.53;;;1.75;;
45842;SDS011;31563;51.744;8.252;2023-03-01T11:04:58;5.53;;;1.42;;
45842;SDS011;31563;51.744;8.252;2023-03-01T11:07:29;2.90;;;1.33;;
45842;SDS011;31563;51.744;8.252;2023-03-01T11:09:57;2.10;;;1.40;;
45842;SDS011;31563;51.744;8.252;2023-03-01T11:12:25;1.88;;;1.45;;
45842;SDS011;31563;51.744;8.252;2023-03-01T11:14:56;2.85;;;1.40;;
45842;SDS011;31563;51.744;8.252;2023-03-01T11:20:02;2.35;;;1.25;;
45842;SDS011;31563;51.744;8.252;2023-03-01T11:22:44;1.88;;;1.27;;
45842;SDS011;31563;51.744;8.252;2023-03-01T11:25:16;3.47;;;1.58;;
45842;SDS011;31563;51.744;8.252;2023-03-01T11:27:46;2.55;;;1.10;;
45842;SDS011;31563;51.744;8.252;2023-03-01T11:30:17;2.17;;;1.10;;
45842;SDS011;31563;51.744;8.252;2023-03-01T11:32:49;3.03;;;1.27;;
45842;SDS011;31563;51.744;8.252;2023-03-01T11:35:25;2.75;;;1.02;;
45842;SDS011;31563;51.744;8.252;2023-03-01T11:37:58;2.10;;;0.98;;
45842;SDS011;31563;51.744;8.252;2023-03-01T11:40:33;1.52;;;1.10;;
45842;SDS011;31563;51.744;8.252;2023-03-01T11:43:05;2.10;;;1.23;;
45842;SDS011;31563;51.744;8.252;2023-03-01T11:45:46;3.70;;;1.15;;
45842;SDS011;31563;51.744;8.252;2023-03-01T11:48:32;1.52;;;0.93;;
45842;SDS011;31563;51.744;8.252;2023-03-01T11:51:17;2.65;;;1.00;;
45842;SDS011;31563;51.744;8.252;2023-03-01T11:54:03;2.03;;;1.00;;
45842;SDS011;31563;51.744;8.252;2023-03-01T11:56:38;2.00;;;1.08;;
45842;SDS011;31563;51.744;8.252;2023-03-01T12:02:23;3.22;;;1.10;;
45842;SDS011;31563;51.744;8.252;2023-03-01T12:05:31;2.55;;;1.10;;
45842;SDS011;31563;51.744;8.252;2023-03-01T12:08:14;1.70;;;1.15;;
45842;SDS011;31563;51.744;8.252;2023-03-01T12:10:51;1.98;;;1.30;;
45842;SDS011;31563;51.744;8.252;2023-03-01T12:13:30;2.08;;;1.00;;
45842;SDS011;31563;51.744;8.252;2023-03-01T12:16:18;1.90;;;1.17;;
45842;SDS011;31563;51.744;8.252;2023-03-01T12:19:07;1.50;;;0.93;;
45842;SDS011;31563;51.744;8.252;2023-03-01T12:22:02;1.52;;;0.90;;
45842;SDS011;31563;51.744;8.252;2023-03-01T12:24:50;2.47;;;0.95;;
45842;SDS011;31563;51.744;8.252;2023-03-01T12:30:46;2.10;;;0.90;;
45842;SDS011;31563;51.744;8.252;2023-03-01T12:33:30;3.17;;;1.10;;
45842;SDS011;31563;51.744;8.252;2023-03-01T12:36:20;1.90;;;0.95;;
45842;SDS011;31563;51.744;8.252;2023-03-01T12:39:09;0.98;;;0.73;;
45842;SDS011;31563;51.744;8.252;2023-03-01T12:41:53;2.15;;;1.20;;
45842;SDS011;31563;51.744;8.252;2023-03-01T12:44:35;1.90;;;1.33;;
45842;SDS011;31563;51.744;8.252;2023-03-01T12:47:19;3.10;;;1.17;;
45842;SDS011;31563;51.744;8.252;2023-03-01T12:49:57;2.17;;;1.20;;
45842;SDS011;31563;51.744;8.252;2023-03-01T12:52:31;2.80;;;1.25;;
45842;SDS011;31563;51.744;8.252;2023-03-01T12:55:07;3.15;;;1.00;;
45842;SDS011;31563;51.744;8.252;2023-03-01T12:57:54;4.10;;;1.38;;
45842;SDS011;31563;51.744;8.252;2023-03-01T13:00:31;1.80;;;1.10;;
45842;SDS011;31563;51.744;8.252;2023-03-01T13:03:07;3.15;;;1.05;;
45842;SDS011;31563;51.744;8.252;2023-03-01T13:05:45;2.33;;;0.88;;
45842;SDS011;31563;51.744;8.252;2023-03-01T13:08:29;2.20;;;1.20;;
45842;SDS011;31563;51.744;8.252;2023-03-01T13:11:05;1.15;;;0.60;;
45842;SDS011;31563;51.744;8.252;2023-03-01T13:13:39;3.08;;;1.13;;
45842;SDS011;31563;51.744;8.252;2023-03-01T13:16:20;2.25;;;1.13;;
45842;SDS011;31563;51.744;8.252;2023-03-01T13:18:51;2.58;;;1.20;;
45842;SDS011;31563;51.744;8.252;2023-03-01T13:21:34;2.50;;;0.70;;
45842;SDS011;31563;51.744;8.252;2023-03-01T13:24:02;1.43;;;0.90;;
45842;SDS011;31563;51.744;8.252;2023-03-01T13:26:30;1.48;;;0.80;;
45842;SDS011;31563;51.744;8.252;2023-03-01T13:29:26;1.45;;;0.90;;
45842;SDS011;31563;51.744;8.252;2023-03-01T13:31:55;2.90;;;1.10;;
45842;SDS011;31563;51.744;8.252;2023-03-01T13:34:41;3.38;;;1.10;;
45842;SDS011;31563;51.744;8.252;2023-03-01T13:37:28;8.10;;;2.45;;
45842;SDS011;31563;51.744;8.252;2023-03-01T13:39:59;5.63;;;2.83;;
45842;SDS011;31563;51.744;8.252;2023-03-01T13:42:45;3.65;;;2.92;;
45842;SDS011;31563;51.744;8.252;2023-03-01T13:45:35;3.78;;;2.95;;
45842;SDS011;31563;51.744;8.252;2023-03-01T13:48:09;6.60;;;2.67;;
45842;SDS011;31563;51.744;8.252;2023-03-01T13:50:44;3.40;;;3.10;;
45842;SDS011;31563;51.744;8.252;2023-03-01T13:53:16;4.65;;;3.25;;
45842;SDS011;31563;51.744;8.252;2023-03-01T13:55:47;5.50;;;3.30;;
45842;SDS011;31563;51.744;8.252;2023-03-01T13:58:19;4.55;;;3.83;;
45842;SDS011;31563;51.744;8.252;2023-03-01T14:00:59;5.13;;;2.40;;
45842;SDS011;31563;51.744;8.252;2023-03-01T14:03:29;5.20;;;2.50;;
45842;SDS011;31563;51.744;8.252;2023-03-01T14:06:00;5.97;;;2.30;;
45842;SDS011;31563;51.744;8.252;2023-03-01T14:08:40;1.88;;;1.40;;
45842;SDS011;31563;51.744;8.252;2023-03-01T14:14:14;4.53;;;1.85;;
45842;SDS011;31563;51.744;8.252;2023-03-01T14:16:56;4.82;;;2.03;;
45842;SDS011;31563;51.744;8.252;2023-03-01T14:19:34;4.47;;;1.52;;
45842;SDS011;31563;51.744;8.252;2023-03-01T14:22:05;3.67;;;1.80;;
45842;SDS011;31563;51.744;8.252;2023-03-01T14:24:50;3.83;;;1.58;;
45842;SDS011;31563;51.744;8.252;2023-03-01T14:27:21;2.60;;;1.48;;
45842;SDS011;31563;51.744;8.252;2023-03-01T14:29:56;2.58;;;1.23;;
45842;SDS011;31563;51.744;8.252;2023-03-01T14:32:27;2.28;;;1.40;;
45842;SDS011;31563;51.744;8.252;2023-03-01T14:34:57;1.95;;;1.30;;
45842;SDS011;31563;51.744;8.252;2023-03-01T14:37:27;3.55;;;1.75;;
45842;SDS011;31563;51.744;8.252;2023-03-01T14:39:57;2.30;;;1.40;;
45842;SDS011;31563;51.744;8.252;2023-03-01T14:42:28;2.83;;;1.05;;
45842;SDS011;31563;51.744;8.252;2023-03-01T14:45:01;2.78;;;1.60;;
45842;SDS011;31563;51.744;8.252;2023-03-01T14:47:34;3.15;;;2.20;;
45842;SDS011;31563;51.744;8.252;2023-03-01T14:50:05;4.13;;;2.83;;
45842;SDS011;31563;51.744;8.252;2023-03-01T14:52:42;2.88;;;2.58;;
45842;SDS011;31563;51.744;8.252;2023-03-01T14:55:15;3.03;;;2.60;;
45842;SDS011;31563;51.744;8.252;2023-03-01T14:57:47;3.60;;;2.67;;
45842;SDS011;31563;51.744;8.252;2023-03-01T15:00:17;4.03;;;2.70;;
45842;SDS011;31563;51.744;8.252;2023-03-01T15:02:49;3.55;;;3.03;;
45842;SDS011;31563;51.744;8.252;2023-03-01T15:05:21;3.35;;;3.05;;
45842;SDS011;31563;51.744;8.252;2023-03-01T15:07:52;3.05;;;2.60;;
45842;SDS011;31563;51.744;8.252;2023-03-01T15:10:22;2.30;;;1.65;;
45842;SDS011;31563;51.744;8.252;2023-03-01T15:12:51;3.10;;;1.60;;
45842;SDS011;31563;51.744;8.252;2023-03-01T15:18:17;3.00;;;1.42;;
45842;SDS011;31563;51.744;8.252;2023-03-01T15:20:46;1.20;;;1.00;;
45842;SDS011;31563;51.744;8.252;2023-03-01T15:23:18;2.13;;;1.40;;
45842;SDS011;31563;51.744;8.252;2023-03-01T15:25:49;2.10;;;1.30;;
45842;SDS011;31563;51.744;8.252;2023-03-01T15:28:23;1.70;;;1.00;;
45842;SDS011;31563;51.744;8.252;2023-03-01T15:30:55;1.77;;;1.10;;
45842;SDS011;31563;51.744;8.252;2023-03-01T15:33:31;1.30;;;0.90;;
45842;SDS011;31563;51.744;8.252;2023-03-01T15:36:02;1.83;;;0.90;;
45842;SDS011;31563;51.744;8.252;2023-03-01T15:38:52;1.58;;;1.13;;
45842;SDS011;31563;51.744;8.252;2023-03-01T15:41:22;1.42;;;1.00;;
45842;SDS011;31563;51.744;8.252;2023-03-01T15:43:52;1.73;;;0.93;;
45842;SDS011;31563;51.744;8.252;2023-03-01T15:46:23;1.75;;;1.20;;
45842;SDS011;31563;51.744;8.252;2023-03-01T15:48:55;1.73;;;1.10;;
45842;SDS011;31563;51.744;8.252;2023-03-01T15:51:29;1.75;;;0.90;;